Terminal Aerodrome Forecast
Issued by NWS

Home | Current Version | Previous Version | Text Only | Print | Product List | Glossary On
Versions: 1 2 3 4 5 6 7 8 9 10 11 12 13 14 15
000
FTUS46 KMTR 272344
TAFOAK
TAF
KOAK 272344Z 2800/2906 27012KT P6SM FEW020
     FM280300 29008KT P6SM SCT010
      TEMPO 2803/2805 BKN010
     FM280500 29006KT P6SM OVC009
     FM281800 26008KT P6SM FEW014
     FM282100 29014G20KT P6SM SKC=

USA.gov is the U.S. government's official web portal to all federal, state and local government web resources and services.